sensor_id;sensor_type;location;lat;lon;timestamp;temperature;humidity
26336;DHT22;14047;50.936;4.654;2023-11-21T00:00:19;11.60;99.90
26336;DHT22;14047;50.936;4.654;2023-11-21T00:02:45;11.70;99.90
26336;DHT22;14047;50.936;4.654;2023-11-21T00:05:13;11.70;99.90
26336;DHT22;14047;50.936;4.654;2023-11-21T00:07:42;11.70;99.90
26336;DHT22;14047;50.936;4.654;2023-11-21T00:10:09;11.70;99.90
26336;DHT22;14047;50.936;4.654;2023-11-21T00:12:36;11.60;99.90
26336;DHT22;14047;50.936;4.654;2023-11-21T00:15:03;11.40;99.90
26336;DHT22;14047;50.936;4.654;2023-11-21T00:17:31;11.50;99.90
26336;DHT22;14047;50.936;4.654;2023-11-21T00:19:57;11.40;99.90
26336;DHT22;14047;50.936;4.654;2023-11-21T00:22:23;11.30;99.90
26336;DHT22;14047;50.936;4.654;2023-11-21T00:24:49;11.30;99.90
26336;DHT22;14047;50.936;4.654;2023-11-21T00:27:15;11.20;99.90
26336;DHT22;14047;50.936;4.654;2023-11-21T00:29:40;11.30;99.90
26336;DHT22;14047;50.936;4.654;2023-11-21T00:32:08;11.30;99.90
26336;DHT22;14047;50.936;4.654;2023-11-21T00:34:34;11.40;99.90
26336;DHT22;14047;50.936;4.654;2023-11-21T00:37:00;11.40;99.90
26336;DHT22;14047;50.936;4.654;2023-11-21T00:39:26;11.30;99.90
26336;DHT22;14047;50.936;4.654;2023-11-21T00:41:52;11.20;99.90
26336;DHT22;14047;50.936;4.654;2023-11-21T00:44:18;11.10;99.90
26336;DHT22;14047;50.936;4.654;2023-11-21T00:46:44;10.90;99.90
26336;DHT22;14047;50.936;4.654;2023-11-21T00:49:10;10.80;99.90
26336;DHT22;14047;50.936;4.654;2023-11-21T00:51:36;10.70;99.90
26336;DHT22;14047;50.936;4.654;2023-11-21T00:54:02;10.50;99.90
26336;DHT22;14047;50.936;4.654;2023-11-21T00:56:29;10.50;99.90
26336;DHT22;14047;50.936;4.654;2023-11-21T00:58:55;10.40;99.90
26336;DHT22;14047;50.936;4.654;2023-11-21T01:01:21;10.30;99.90
26336;DHT22;14047;50.936;4.654;2023-11-21T01:03:49;10.30;99.90
26336;DHT22;14047;50.936;4.654;2023-11-21T01:06:15;10.30;99.90
26336;DHT22;14047;50.936;4.654;2023-11-21T01:08:41;10.30;99.90
26336;DHT22;14047;50.936;4.654;2023-11-21T01:11:10;10.20;99.90
26336;DHT22;14047;50.936;4.654;2023-11-21T01:13:39;10.10;99.90
26336;DHT22;14047;50.936;4.654;2023-11-21T01:16:06;10.20;99.90
26336;DHT22;14047;50.936;4.654;2023-11-21T01:18:32;10.20;99.90
26336;DHT22;14047;50.936;4.654;2023-11-21T01:20:59;10.20;99.90
26336;DHT22;14047;50.936;4.654;2023-11-21T01:23:27;10.20;99.90
26336;DHT22;14047;50.936;4.654;2023-11-21T01:25:56;10.30;99.90
26336;DHT22;14047;50.936;4.654;2023-11-21T01:28:22;10.40;99.90
26336;DHT22;14047;50.936;4.654;2023-11-21T01:30:48;10.40;99.90
26336;DHT22;14047;50.936;4.654;2023-11-21T01:33:15;10.50;99.90
26336;DHT22;14047;50.936;4.654;2023-11-21T01:35:44;10.50;99.90
26336;DHT22;14047;50.936;4.654;2023-11-21T01:38:12;10.50;99.90
26336;DHT22;14047;50.936;4.654;2023-11-21T01:40:38;10.60;99.90
26336;DHT22;14047;50.936;4.654;2023-11-21T01:43:04;10.70;99.90
26336;DHT22;14047;50.936;4.654;2023-11-21T01:45:30;10.60;99.90
26336;DHT22;14047;50.936;4.654;2023-11-21T01:48:00;10.60;99.90
26336;DHT22;14047;50.936;4.654;2023-11-21T01:50:27;10.60;99.90
26336;DHT22;14047;50.936;4.654;2023-11-21T01:52:53;10.70;99.90
26336;DHT22;14047;50.936;4.654;2023-11-21T01:55:20;10.70;99.90
26336;DHT22;14047;50.936;4.654;2023-11-21T01:57:46;10.70;99.90
26336;DHT22;14047;50.936;4.654;2023-11-21T02:00:13;10.70;99.90
26336;DHT22;14047;50.936;4.654;2023-11-21T02:02:46;10.80;99.90
26336;DHT22;14047;50.936;4.654;2023-11-21T02:05:14;10.80;99.90
26336;DHT22;14047;50.936;4.654;2023-11-21T02:07:41;10.80;99.90
26336;DHT22;14047;50.936;4.654;2023-11-21T02:10:09;10.80;99.90
26336;DHT22;14047;50.936;4.654;2023-11-21T02:12:36;10.80;99.90
26336;DHT22;14047;50.936;4.654;2023-11-21T02:15:05;10.70;99.90
26336;DHT22;14047;50.936;4.654;2023-11-21T02:17:36;10.70;99.90
26336;DHT22;14047;50.936;4.654;2023-11-21T02:20:02;10.80;99.90
26336;DHT22;14047;50.936;4.654;2023-11-21T02:22:31;10.80;99.90
26336;DHT22;14047;50.936;4.654;2023-11-21T02:24:59;10.80;99.90
26336;DHT22;14047;50.936;4.654;2023-11-21T02:27:25;10.80;99.90
26336;DHT22;14047;50.936;4.654;2023-11-21T02:29:52;10.80;99.90
26336;DHT22;14047;50.936;4.654;2023-11-21T02:32:18;10.80;99.90
26336;DHT22;14047;50.936;4.654;2023-11-21T02:34:45;10.90;99.90
26336;DHT22;14047;50.936;4.654;2023-11-21T02:37:11;10.80;99.90
26336;DHT22;14047;50.936;4.654;2023-11-21T02:39:38;10.80;99.90
26336;DHT22;14047;50.936;4.654;2023-11-21T02:42:04;10.90;99.90
26336;DHT22;14047;50.936;4.654;2023-11-21T02:44:30;10.90;99.90
26336;DHT22;14047;50.936;4.654;2023-11-21T02:46:56;11.00;99.90
26336;DHT22;14047;50.936;4.654;2023-11-21T02:49:23;11.00;99.90
26336;DHT22;14047;50.936;4.654;2023-11-21T02:51:49;11.00;99.90
26336;DHT22;14047;50.936;4.654;2023-11-21T02:54:15;11.00;99.90
26336;DHT22;14047;50.936;4.654;2023-11-21T02:56:42;11.10;99.90
26336;DHT22;14047;50.936;4.654;2023-11-21T02:59:08;11.10;99.90
26336;DHT22;14047;50.936;4.654;2023-11-21T03:01:34;11.20;99.90
26336;DHT22;14047;50.936;4.654;2023-11-21T03:04:00;11.20;99.90
26336;DHT22;14047;50.936;4.654;2023-11-21T03:06:27;11.20;99.90
26336;DHT22;14047;50.936;4.654;2023-11-21T03:08:53;11.30;99.90
26336;DHT22;14047;50.936;4.654;2023-11-21T03:11:19;11.30;99.90
26336;DHT22;14047;50.936;4.654;2023-11-21T03:13:45;11.40;99.90
26336;DHT22;14047;50.936;4.654;2023-11-21T03:16:12;11.40;99.90
26336;DHT22;14047;50.936;4.654;2023-11-21T03:18:39;11.40;99.90
26336;DHT22;14047;50.936;4.654;2023-11-21T03:21:06;11.40;99.90
26336;DHT22;14047;50.936;4.654;2023-11-21T03:23:35;11.40;99.90
26336;DHT22;14047;50.936;4.654;2023-11-21T03:26:03;11.50;99.90
26336;DHT22;14047;50.936;4.654;2023-11-21T03:28:29;11.50;99.90
26336;DHT22;14047;50.936;4.654;2023-11-21T03:30:58;11.50;99.90
26336;DHT22;14047;50.936;4.654;2023-11-21T03:33:24;11.50;99.90
26336;DHT22;14047;50.936;4.654;2023-11-21T03:35:51;11.40;99.90
26336;DHT22;14047;50.936;4.654;2023-11-21T03:38:19;11.40;99.90
26336;DHT22;14047;50.936;4.654;2023-11-21T03:40:47;11.50;99.90
26336;DHT22;14047;50.936;4.654;2023-11-21T03:43:13;11.40;99.90
26336;DHT22;14047;50.936;4.654;2023-11-21T03:45:41;11.50;99.90
26336;DHT22;14047;50.936;4.654;2023-11-21T03:48:07;11.50;99.90
26336;DHT22;14047;50.936;4.654;2023-11-21T03:50:37;11.50;99.90
26336;DHT22;14047;50.936;4.654;2023-11-21T03:53:03;11.60;99.90
26336;DHT22;14047;50.936;4.654;2023-11-21T03:55:29;11.60;99.90
26336;DHT22;14047;50.936;4.654;2023-11-21T03:57:58;11.60;99.90
26336;DHT22;14047;50.936;4.654;2023-11-21T04:00:25;11.60;99.90
26336;DHT22;14047;50.936;4.654;2023-11-21T04:02:53;11.60;99.90
26336;DHT22;14047;50.936;4.654;2023-11-21T04:05:20;11.50;99.90
26336;DHT22;14047;50.936;4.654;2023-11-21T04:07:49;11.50;99.90
26336;DHT22;14047;50.936;4.654;2023-11-21T04:10:17;11.40;99.90
26336;DHT22;14047;50.936;4.654;2023-11-21T04:12:43;11.50;99.90
26336;DHT22;14047;50.936;4.654;2023-11-21T04:15:11;11.60;99.90
26336;DHT22;14047;50.936;4.654;2023-11-21T04:17:39;11.60;99.90
26336;DHT22;14047;50.936;4.654;2023-11-21T04:20:06;11.60;99.90
26336;DHT22;14047;50.936;4.654;2023-11-21T04:22:44;11.60;99.90
26336;DHT22;14047;50.936;4.654;2023-11-21T04:25:12;11.70;99.90
26336;DHT22;14047;50.936;4.654;2023-11-21T04:27:39;11.70;99.90
26336;DHT22;14047;50.936;4.654;2023-11-21T04:30:06;11.80;99.90
26336;DHT22;14047;50.936;4.654;2023-11-21T04:32:33;11.70;99.90
26336;DHT22;14047;50.936;4.654;2023-11-21T04:35:00;11.80;99.90
26336;DHT22;14047;50.936;4.654;2023-11-21T04:37:26;11.80;99.90
26336;DHT22;14047;50.936;4.654;2023-11-21T04:39:52;11.80;99.90
26336;DHT22;14047;50.936;4.654;2023-11-21T04:42:18;11.80;99.90
26336;DHT22;14047;50.936;4.654;2023-11-21T04:44:43;11.90;99.90
26336;DHT22;14047;50.936;4.654;2023-11-21T04:47:10;11.90;99.90
26336;DHT22;14047;50.936;4.654;2023-11-21T04:49:36;11.90;99.90
26336;DHT22;14047;50.936;4.654;2023-11-21T04:52:02;11.90;99.90
26336;DHT22;14047;50.936;4.654;2023-11-21T04:54:30;11.90;99.90
26336;DHT22;14047;50.936;4.654;2023-11-21T04:56:56;11.90;99.90
26336;DHT22;14047;50.936;4.654;2023-11-21T04:59:22;12.00;99.90
26336;DHT22;14047;50.936;4.654;2023-11-21T05:01:53;12.00;99.90
26336;DHT22;14047;50.936;4.654;2023-11-21T05:04:22;12.00;99.90
26336;DHT22;14047;50.936;4.654;2023-11-21T05:06:48;12.10;99.90
26336;DHT22;14047;50.936;4.654;2023-11-21T05:09:15;12.10;99.90
26336;DHT22;14047;50.936;4.654;2023-11-21T05:11:42;12.10;99.90
26336;DHT22;14047;50.936;4.654;2023-11-21T05:14:07;12.10;99.90
26336;DHT22;14047;50.936;4.654;2023-11-21T05:16:34;12.10;99.90
26336;DHT22;14047;50.936;4.654;2023-11-21T05:19:01;12.10;99.90
26336;DHT22;14047;50.936;4.654;2023-11-21T05:21:27;12.10;99.90
26336;DHT22;14047;50.936;4.654;2023-11-21T05:23:53;12.10;99.90
26336;DHT22;14047;50.936;4.654;2023-11-21T05:26:19;12.00;99.90
26336;DHT22;14047;50.936;4.654;2023-11-21T05:28:46;12.00;99.90
26336;DHT22;14047;50.936;4.654;2023-11-21T05:31:12;12.00;99.90
26336;DHT22;14047;50.936;4.654;2023-11-21T05:33:37;12.00;99.90
26336;DHT22;14047;50.936;4.654;2023-11-21T05:36:04;12.10;99.90
26336;DHT22;14047;50.936;4.654;2023-11-21T05:38:31;12.00;99.90
26336;DHT22;14047;50.936;4.654;2023-11-21T05:40:57;12.00;99.90
26336;DHT22;14047;50.936;4.654;2023-11-21T05:43:24;12.00;99.90
26336;DHT22;14047;50.936;4.654;2023-11-21T05:45:50;11.90;99.90
26336;DHT22;14047;50.936;4.654;2023-11-21T05:48:16;12.00;99.90
26336;DHT22;14047;50.936;4.654;2023-11-21T05:50:41;12.00;99.90
26336;DHT22;14047;50.936;4.654;2023-11-21T05:53:07;11.90;99.90
26336;DHT22;14047;50.936;4.654;2023-11-21T05:55:35;12.00;99.90
26336;DHT22;14047;50.936;4.654;2023-11-21T05:58:01;11.90;99.90
26336;DHT22;14047;50.936;4.654;2023-11-21T06:00:27;11.80;99.90
26336;DHT22;14047;50.936;4.654;2023-11-21T06:02:54;11.80;99.90
26336;DHT22;14047;50.936;4.654;2023-11-21T06:05:22;11.80;99.90
26336;DHT22;14047;50.936;4.654;2023-11-21T06:07:49;11.80;99.90
26336;DHT22;14047;50.936;4.654;2023-11-21T06:10:16;11.60;99.90
26336;DHT22;14047;50.936;4.654;2023-11-21T06:12:43;11.60;99.90
26336;DHT22;14047;50.936;4.654;2023-11-21T06:15:10;11.60;99.90
26336;DHT22;14047;50.936;4.654;2023-11-21T06:17:39;11.60;99.90
26336;DHT22;14047;50.936;4.654;2023-11-21T06:20:06;11.60;99.90
26336;DHT22;14047;50.936;4.654;2023-11-21T06:22:37;11.60;99.90
26336;DHT22;14047;50.936;4.654;2023-11-21T06:25:03;11.70;99.90
26336;DHT22;14047;50.936;4.654;2023-11-21T06:27:32;11.70;99.90
26336;DHT22;14047;50.936;4.654;2023-11-21T06:29:58;11.70;99.90
26336;DHT22;14047;50.936;4.654;2023-11-21T06:32:24;11.70;99.90
26336;DHT22;14047;50.936;4.654;2023-11-21T06:34:52;11.60;99.90
26336;DHT22;14047;50.936;4.654;2023-11-21T06:37:20;11.60;99.90
26336;DHT22;14047;50.936;4.654;2023-11-21T06:39:49;11.60;99.90
26336;DHT22;14047;50.936;4.654;2023-11-21T06:42:18;11.70;99.90
26336;DHT22;14047;50.936;4.654;2023-11-21T06:44:45;11.70;99.90
26336;DHT22;14047;50.936;4.654;2023-11-21T06:47:11;11.90;99.90
26336;DHT22;14047;50.936;4.654;2023-11-21T06:49:37;11.90;99.90
26336;DHT22;14047;50.936;4.654;2023-11-21T06:52:06;11.90;99.90
26336;DHT22;14047;50.936;4.654;2023-11-21T06:54:32;12.00;99.90
26336;DHT22;14047;50.936;4.654;2023-11-21T06:56:58;12.00;99.90
26336;DHT22;14047;50.936;4.654;2023-11-21T06:59:24;12.00;99.90
26336;DHT22;14047;50.936;4.654;2023-11-21T07:01:50;12.10;99.90
26336;DHT22;14047;50.936;4.654;2023-11-21T07:04:16;12.00;99.90
26336;DHT22;14047;50.936;4.654;2023-11-21T07:06:42;11.90;99.90
26336;DHT22;14047;50.936;4.654;2023-11-21T07:09:09;11.80;99.90
26336;DHT22;14047;50.936;4.654;2023-11-21T07:11:35;11.70;99.90
26336;DHT22;14047;50.936;4.654;2023-11-21T07:14:01;11.50;99.90
26336;DHT22;14047;50.936;4.654;2023-11-21T07:16:36;11.50;99.90
26336;DHT22;14047;50.936;4.654;2023-11-21T07:19:07;11.60;99.90
26336;DHT22;14047;50.936;4.654;2023-11-21T07:21:33;11.60;99.90
26336;DHT22;14047;50.936;4.654;2023-11-21T07:24:03;11.70;99.90
26336;DHT22;14047;50.936;4.654;2023-11-21T07:26:30;11.70;99.90
26336;DHT22;14047;50.936;4.654;2023-11-21T07:28:56;11.60;99.90
26336;DHT22;14047;50.936;4.654;2023-11-21T07:31:23;11.50;99.90
26336;DHT22;14047;50.936;4.654;2023-11-21T07:33:50;11.40;99.90
26336;DHT22;14047;50.936;4.654;2023-11-21T07:36:19;11.40;99.90
26336;DHT22;14047;50.936;4.654;2023-11-21T07:38:48;11.60;99.90
26336;DHT22;14047;50.936;4.654;2023-11-21T07:41:14;11.60;99.90
26336;DHT22;14047;50.936;4.654;2023-11-21T07:43:46;11.50;99.90
26336;DHT22;14047;50.936;4.654;2023-11-21T07:46:13;11.60;99.90
26336;DHT22;14047;50.936;4.654;2023-11-21T07:48:39;11.60;99.90
26336;DHT22;14047;50.936;4.654;2023-11-21T07:51:06;11.60;99.90
26336;DHT22;14047;50.936;4.654;2023-11-21T07:53:32;11.60;99.90
26336;DHT22;14047;50.936;4.654;2023-11-21T07:56:05;11.70;99.90
26336;DHT22;14047;50.936;4.654;2023-11-21T07:58:32;11.70;99.90
26336;DHT22;14047;50.936;4.654;2023-11-21T08:01:01;11.70;99.90
26336;DHT22;14047;50.936;4.654;2023-11-21T08:03:27;11.70;99.90
26336;DHT22;14047;50.936;4.654;2023-11-21T08:05:55;11.70;99.90
26336;DHT22;14047;50.936;4.654;2023-11-21T08:08:22;11.70;99.90
26336;DHT22;14047;50.936;4.654;2023-11-21T08:10:48;11.80;99.90
26336;DHT22;14047;50.936;4.654;2023-11-21T08:13:14;11.80;99.90
26336;DHT22;14047;50.936;4.654;2023-11-21T08:15:43;11.80;99.90
26336;DHT22;14047;50.936;4.654;2023-11-21T08:18:12;11.80;99.90
26336;DHT22;14047;50.936;4.654;2023-11-21T08:20:40;11.80;99.90
26336;DHT22;14047;50.936;4.654;2023-11-21T08:23:06;11.70;99.90
26336;DHT22;14047;50.936;4.654;2023-11-21T08:25:32;11.70;99.90
26336;DHT22;14047;50.936;4.654;2023-11-21T08:28:00;11.60;99.90
26336;DHT22;14047;50.936;4.654;2023-11-21T08:30:27;11.70;99.90
26336;DHT22;14047;50.936;4.654;2023-11-21T08:32:56;11.70;99.90
26336;DHT22;14047;50.936;4.654;2023-11-21T08:35:24;11.80;99.90
26336;DHT22;14047;50.936;4.654;2023-11-21T08:37:53;11.90;99.90
26336;DHT22;14047;50.936;4.654;2023-11-21T08:40:19;12.00;99.90
26336;DHT22;14047;50.936;4.654;2023-11-21T08:42:47;12.00;99.90
26336;DHT22;14047;50.936;4.654;2023-11-21T08:45:16;12.00;99.90
26336;DHT22;14047;50.936;4.654;2023-11-21T08:47:43;12.10;99.90
26336;DHT22;14047;50.936;4.654;2023-11-21T08:50:12;12.10;99.90
26336;DHT22;14047;50.936;4.654;2023-11-21T08:52:39;12.20;99.90
26336;DHT22;14047;50.936;4.654;2023-11-21T08:55:07;12.30;99.90
26336;DHT22;14047;50.936;4.654;2023-11-21T08:57:38;12.30;99.90
26336;DHT22;14047;50.936;4.654;2023-11-21T09:00:07;12.30;99.90
26336;DHT22;14047;50.936;4.654;2023-11-21T09:02:37;12.30;99.90
26336;DHT22;14047;50.936;4.654;2023-11-21T09:05:04;12.50;99.90
26336;DHT22;14047;50.936;4.654;2023-11-21T09:07:30;12.40;99.90
26336;DHT22;14047;50.936;4.654;2023-11-21T09:09:56;12.40;99.90
26336;DHT22;14047;50.936;4.654;2023-11-21T09:12:22;12.30;99.90
26336;DHT22;14047;50.936;4.654;2023-11-21T09:14:50;12.30;99.90
26336;DHT22;14047;50.936;4.654;2023-11-21T09:17:16;12.50;99.90
26336;DHT22;14047;50.936;4.654;2023-11-21T09:19:42;12.60;99.90
26336;DHT22;14047;50.936;4.654;2023-11-21T09:22:15;12.60;99.90
26336;DHT22;14047;50.936;4.654;2023-11-21T09:24:42;12.60;99.90
26336;DHT22;14047;50.936;4.654;2023-11-21T09:27:08;12.50;99.90
26336;DHT22;14047;50.936;4.654;2023-11-21T09:29:35;12.50;99.90
26336;DHT22;14047;50.936;4.654;2023-11-21T09:32:03;12.50;99.90
26336;DHT22;14047;50.936;4.654;2023-11-21T09:34:28;12.20;99.90
26336;DHT22;14047;50.936;4.654;2023-11-21T09:36:54;12.20;99.90
26336;DHT22;14047;50.936;4.654;2023-11-21T09:39:24;12.20;99.90
26336;DHT22;14047;50.936;4.654;2023-11-21T09:41:52;12.40;99.90
26336;DHT22;14047;50.936;4.654;2023-11-21T09:44:35;12.50;99.90
26336;DHT22;14047;50.936;4.654;2023-11-21T09:47:02;12.70;99.90
26336;DHT22;14047;50.936;4.654;2023-11-21T09:49:29;12.70;99.90
26336;DHT22;14047;50.936;4.654;2023-11-21T09:52:01;12.60;99.90
26336;DHT22;14047;50.936;4.654;2023-11-21T09:54:30;12.70;99.90
26336;DHT22;14047;50.936;4.654;2023-11-21T09:57:02;12.70;99.90
26336;DHT22;14047;50.936;4.654;2023-11-21T09:59:32;12.60;99.90
26336;DHT22;14047;50.936;4.654;2023-11-21T10:01:58;12.50;99.90
26336;DHT22;14047;50.936;4.654;2023-11-21T10:04:25;12.40;99.90
26336;DHT22;14047;50.936;4.654;2023-11-21T10:06:53;12.40;99.90
26336;DHT22;14047;50.936;4.654;2023-11-21T10:09:21;12.30;99.90
26336;DHT22;14047;50.936;4.654;2023-11-21T10:11:47;12.20;99.90
26336;DHT22;14047;50.936;4.654;2023-11-21T10:14:15;12.20;99.90
26336;DHT22;14047;50.936;4.654;2023-11-21T10:16:44;12.20;99.90
26336;DHT22;14047;50.936;4.654;2023-11-21T10:19:13;12.20;99.90
26336;DHT22;14047;50.936;4.654;2023-11-21T10:21:42;12.20;99.90
26336;DHT22;14047;50.936;4.654;2023-11-21T10:24:08;12.30;99.90
26336;DHT22;14047;50.936;4.654;2023-11-21T10:26:35;12.30;99.90
26336;DHT22;14047;50.936;4.654;2023-11-21T10:29:02;12.30;99.90
26336;DHT22;14047;50.936;4.654;2023-11-21T10:31:32;12.30;99.90
26336;DHT22;14047;50.936;4.654;2023-11-21T10:34:14;12.50;99.90
26336;DHT22;14047;50.936;4.654;2023-11-21T10:36:41;12.50;99.90
26336;DHT22;14047;50.936;4.654;2023-11-21T10:39:07;12.60;99.90
26336;DHT22;14047;50.936;4.654;2023-11-21T10:41:33;12.70;99.90
26336;DHT22;14047;50.936;4.654;2023-11-21T10:44:01;12.70;99.90
26336;DHT22;14047;50.936;4.654;2023-11-21T10:46:30;12.60;99.90
26336;DHT22;14047;50.936;4.654;2023-11-21T10:48:56;12.70;99.90
26336;DHT22;14047;50.936;4.654;2023-11-21T10:51:22;12.80;99.90
26336;DHT22;14047;50.936;4.654;2023-11-21T10:53:51;12.80;99.90
26336;DHT22;14047;50.936;4.654;2023-11-21T10:56:18;12.90;99.90
26336;DHT22;14047;50.936;4.654;2023-11-21T10:58:49;12.90;99.90
26336;DHT22;14047;50.936;4.654;2023-11-21T11:01:17;12.90;99.90
26336;DHT22;14047;50.936;4.654;2023-11-21T11:03:44;13.00;99.90
26336;DHT22;14047;50.936;4.654;2023-11-21T11:06:12;13.10;99.90
26336;DHT22;14047;50.936;4.654;2023-11-21T11:08:39;13.10;99.90
26336;DHT22;14047;50.936;4.654;2023-11-21T11:11:06;13.10;99.90
26336;DHT22;14047;50.936;4.654;2023-11-21T11:13:32;13.10;99.90
26336;DHT22;14047;50.936;4.654;2023-11-21T11:15:59;13.20;99.90
26336;DHT22;14047;50.936;4.654;2023-11-21T11:18:29;13.20;99.90
26336;DHT22;14047;50.936;4.654;2023-11-21T11:24:41;13.10;99.90
26336;DHT22;14047;50.936;4.654;2023-11-21T11:32:40;12.10;99.90
26336;DHT22;14047;50.936;4.654;2023-11-21T11:35:16;12.00;99.90
26336;DHT22;14047;50.936;4.654;2023-11-21T11:37:43;12.10;99.90
26336;DHT22;14047;50.936;4.654;2023-11-21T11:40:12;12.30;99.90
26336;DHT22;14047;50.936;4.654;2023-11-21T11:42:38;12.20;99.90
26336;DHT22;14047;50.936;4.654;2023-11-21T11:45:18;12.50;99.90
26336;DHT22;14047;50.936;4.654;2023-11-21T11:47:48;12.50;99.90
26336;DHT22;14047;50.936;4.654;2023-11-21T11:50:14;12.50;99.90
26336;DHT22;14047;50.936;4.654;2023-11-21T11:52:50;12.50;99.90
26336;DHT22;14047;50.936;4.654;2023-11-21T11:55:17;12.60;99.90
26336;DHT22;14047;50.936;4.654;2023-11-21T11:57:51;12.70;99.90
26336;DHT22;14047;50.936;4.654;2023-11-21T12:00:43;12.70;99.90
26336;DHT22;14047;50.936;4.654;2023-11-21T12:03:09;12.70;99.90
26336;DHT22;14047;50.936;4.654;2023-11-21T12:05:36;12.90;99.90
26336;DHT22;14047;50.936;4.654;2023-11-21T12:08:05;12.80;99.90
26336;DHT22;14047;50.936;4.654;2023-11-21T12:10:36;12.70;99.90
26336;DHT22;14047;50.936;4.654;2023-11-21T12:13:09;12.80;99.90
26336;DHT22;14047;50.936;4.654;2023-11-21T12:15:36;12.80;99.90
26336;DHT22;14047;50.936;4.654;2023-11-21T12:18:03;12.80;99.90
26336;DHT22;14047;50.936;4.654;2023-11-21T12:20:29;12.90;99.90
26336;DHT22;14047;50.936;4.654;2023-11-21T12:22:58;12.90;99.90
26336;DHT22;14047;50.936;4.654;2023-11-21T12:25:29;12.90;99.90
26336;DHT22;14047;50.936;4.654;2023-11-21T12:27:57;12.70;99.90
26336;DHT22;14047;50.936;4.654;2023-11-21T12:30:30;12.40;99.90
26336;DHT22;14047;50.936;4.654;2023-11-21T12:32:58;12.40;99.90
26336;DHT22;14047;50.936;4.654;2023-11-21T12:35:33;12.60;99.90
26336;DHT22;14047;50.936;4.654;2023-11-21T12:38:01;12.30;99.90
26336;DHT22;14047;50.936;4.654;2023-11-21T12:40:28;12.20;99.90
26336;DHT22;14047;50.936;4.654;2023-11-21T12:42:56;12.30;99.90
26336;DHT22;14047;50.936;4.654;2023-11-21T12:45:28;12.40;99.90
26336;DHT22;14047;50.936;4.654;2023-11-21T12:47:56;12.20;99.90
26336;DHT22;14047;50.936;4.654;2023-11-21T12:50:26;12.20;99.90
26336;DHT22;14047;50.936;4.654;2023-11-21T12:53:02;12.30;99.90
26336;DHT22;14047;50.936;4.654;2023-11-21T12:55:32;12.30;99.90
26336;DHT22;14047;50.936;4.654;2023-11-21T12:58:05;12.10;99.90
26336;DHT22;14047;50.936;4.654;2023-11-21T13:00:39;12.00;99.90
26336;DHT22;14047;50.936;4.654;2023-11-21T13:03:09;12.30;99.90
26336;DHT22;14047;50.936;4.654;2023-11-21T13:05:37;12.50;99.90
26336;DHT22;14047;50.936;4.654;2023-11-21T13:08:14;12.50;99.90
26336;DHT22;14047;50.936;4.654;2023-11-21T13:10:45;12.50;99.90
26336;DHT22;14047;50.936;4.654;2023-11-21T13:13:13;12.60;99.90
26336;DHT22;14047;50.936;4.654;2023-11-21T13:15:53;12.70;99.90
26336;DHT22;14047;50.936;4.654;2023-11-21T13:18:22;12.70;99.90
26336;DHT22;14047;50.936;4.654;2023-11-21T13:20:49;12.70;99.90
26336;DHT22;14047;50.936;4.654;2023-11-21T13:23:15;12.50;99.90
26336;DHT22;14047;50.936;4.654;2023-11-21T13:25:42;12.40;99.90
26336;DHT22;14047;50.936;4.654;2023-11-21T13:28:11;12.20;99.90
26336;DHT22;14047;50.936;4.654;2023-11-21T13:30:37;12.20;99.90
26336;DHT22;14047;50.936;4.654;2023-11-21T13:33:07;12.20;99.90
26336;DHT22;14047;50.936;4.654;2023-11-21T13:35:34;12.10;99.90
26336;DHT22;14047;50.936;4.654;2023-11-21T13:38:07;12.20;99.90
26336;DHT22;14047;50.936;4.654;2023-11-21T13:40:33;12.30;99.90
26336;DHT22;14047;50.936;4.654;2023-11-21T13:43:03;12.30;99.90
26336;DHT22;14047;50.936;4.654;2023-11-21T13:45:30;12.30;99.90
26336;DHT22;14047;50.936;4.654;2023-11-21T13:47:56;12.10;99.90
26336;DHT22;14047;50.936;4.654;2023-11-21T13:50:25;12.30;99.90
26336;DHT22;14047;50.936;4.654;2023-11-21T13:52:59;12.20;99.90
26336;DHT22;14047;50.936;4.654;2023-11-21T13:55:30;12.20;99.90
26336;DHT22;14047;50.936;4.654;2023-11-21T13:57:56;12.20;99.90
26336;DHT22;14047;50.936;4.654;2023-11-21T14:00:22;12.20;99.90
26336;DHT22;14047;50.936;4.654;2023-11-21T14:03:07;12.40;99.90
26336;DHT22;14047;50.936;4.654;2023-11-21T14:05:43;12.40;99.90
26336;DHT22;14047;50.936;4.654;2023-11-21T14:08:10;12.40;99.90
26336;DHT22;14047;50.936;4.654;2023-11-21T14:10:37;12.50;99.90
26336;DHT22;14047;50.936;4.654;2023-11-21T14:13:10;12.20;99.90
26336;DHT22;14047;50.936;4.654;2023-11-21T14:15:39;12.30;99.90
26336;DHT22;14047;50.936;4.654;2023-11-21T14:18:12;12.10;99.90
26336;DHT22;14047;50.936;4.654;2023-11-21T14:20:43;12.00;99.90
26336;DHT22;14047;50.936;4.654;2023-11-21T14:23:10;12.00;99.90
26336;DHT22;14047;50.936;4.654;2023-11-21T14:25:37;12.00;99.90
26336;DHT22;14047;50.936;4.654;2023-11-21T14:28:05;12.20;99.90
26336;DHT22;14047;50.936;4.654;2023-11-21T14:30:32;12.30;99.90
26336;DHT22;14047;50.936;4.654;2023-11-21T14:33:01;12.30;99.90
26336;DHT22;14047;50.936;4.654;2023-11-21T14:35:28;12.40;99.90
26336;DHT22;14047;50.936;4.654;2023-11-21T14:37:59;12.50;99.90
26336;DHT22;14047;50.936;4.654;2023-11-21T14:40:26;12.30;99.90
26336;DHT22;14047;50.936;4.654;2023-11-21T14:42:57;12.30;99.90
26336;DHT22;14047;50.936;4.654;2023-11-21T14:45:23;12.00;99.90
26336;DHT22;14047;50.936;4.654;2023-11-21T14:47:51;11.90;99.90
26336;DHT22;14047;50.936;4.654;2023-11-21T14:50:44;11.80;99.90
26336;DHT22;14047;50.936;4.654;2023-11-21T14:53:42;11.70;99.90
26336;DHT22;14047;50.936;4.654;2023-11-21T14:56:23;11.60;99.90
26336;DHT22;14047;50.936;4.654;2023-11-21T14:59:09;11.60;99.90
26336;DHT22;14047;50.936;4.654;2023-11-21T15:01:42;11.80;99.90
26336;DHT22;14047;50.936;4.654;2023-11-21T15:04:23;11.80;99.90
26336;DHT22;14047;50.936;4.654;2023-11-21T15:07:02;11.80;99.90
26336;DHT22;14047;50.936;4.654;2023-11-21T15:09:29;11.70;99.90
26336;DHT22;14047;50.936;4.654;2023-11-21T15:11:58;11.60;99.90
26336;DHT22;14047;50.936;4.654;2023-11-21T15:14:29;11.40;99.90
26336;DHT22;14047;50.936;4.654;2023-11-21T15:17:00;11.30;99.90
26336;DHT22;14047;50.936;4.654;2023-11-21T15:19:27;11.30;99.90
26336;DHT22;14047;50.936;4.654;2023-11-21T15:21:54;11.30;99.90
26336;DHT22;14047;50.936;4.654;2023-11-21T15:24:20;11.30;99.90
26336;DHT22;14047;50.936;4.654;2023-11-21T15:26:46;11.30;99.90
26336;DHT22;14047;50.936;4.654;2023-11-21T15:29:12;11.40;99.90
26336;DHT22;14047;50.936;4.654;2023-11-21T15:31:39;11.50;99.90
26336;DHT22;14047;50.936;4.654;2023-11-21T15:34:09;11.50;99.90
26336;DHT22;14047;50.936;4.654;2023-11-21T15:36:35;11.40;99.90
26336;DHT22;14047;50.936;4.654;2023-11-21T15:39:02;11.30;99.90
26336;DHT22;14047;50.936;4.654;2023-11-21T15:41:28;11.30;99.90
26336;DHT22;14047;50.936;4.654;2023-11-21T15:43:54;11.30;99.90